Aérodrome :
LOGIN :

S'inscrire | Disclaimer

   EN    FR    IT 

 










Légende :    VFR   VFR Marginal   IFR   IFR Intensif   IFR Très Intensif
Visi : 
Plafond : 
>= 8 km
>= 3000ft
5 à 8 km
1000 à 3000 ft
1500m à 5 km
500 à 1000 ft
800 à 1500m
200 à 500 ft
< 800m
< 200 ft
Symboles :   Orages  Brouillard  Fortes neiges  Fortes précipitations  Vent > 20 kt
SIGMETs :   Divers  Orages  Givrage  Turbulence  Onde Orograph.  Cendres Volcan.






- Altitude de l'aérodrome : 220 ft
- Code IATA : CWL


EGFF - Cardiff Rhoose

DERNIER METAR :
  • 141850Z AUTO 29009KT 9999 BKN028 14/10 Q1018

METARs EXPIRÉS :
  • 141820Z AUTO 31009KT 9999 SCT030 15/10 Q1018
  • 141750Z AUTO 32012KT 9999 BKN033 15/09 Q1018
  • 141720Z AUTO 32012KT 9999 SCT039 15/10 Q1018
  • 141650Z AUTO 32015KT 9999 SCT040 16/10 Q1018
  • 141620Z AUTO 31014KT 9999 NCD 16/10 Q1018

TAF TAF EGFF
Valide du 14 à 18h jusqu'au 15 à 18h UTC


141702Z 1418/1518 29012KT 9999 FEW012 SCT030
PROB30
TEMPO 1418/1421 6000 -RA BKN012
TEMPO 1421/1515 6000 -RA FEW006 BKN012
PROB40
TEMPO 1500/1509 4000 RADZ BR BKN006
ATIS : +44 1446 729 319



MET'MAP, la Météo Aéronautique d'un coup d'oeil ! - Copyright ORBIFLY Décembre 2007 - Disclaimer

ORBIFLY MET'MAP TEAM :

Programmation & Développement : Alexandra Zaïnal
Sur une idée originale de : Baudouin d'Aumeries
Assistance à la programmation : Marc-Olivier Méhu
Soutien technique & logistique : Manuel Goepfert

Contact : metmap@orbifly.com




SOURCES & CREDITS :

   NOAA